sensor_id;sensor_type;location;lat;lon;timestamp;pressure;altitude;pressure_sealevel;temperature;humidity
51083;BME280;37131;42.694;23.350;2024-03-25T00:00:41;94223.31;;;3.57;81.26
51083;BME280;37131;42.694;23.350;2024-03-25T00:03:06;94224.84;;;3.50;82.75
51083;BME280;37131;42.694;23.350;2024-03-25T00:05:31;94229.19;;;3.40;81.40
51083;BME280;37131;42.694;23.350;2024-03-25T00:07:57;94225.50;;;3.24;82.64
51083;BME280;37131;42.694;23.350;2024-03-25T00:10:23;94224.09;;;3.40;82.71
51083;BME280;37131;42.694;23.350;2024-03-25T00:12:49;94218.25;;;3.02;82.64
51083;BME280;37131;42.694;23.350;2024-03-25T00:15:20;94225.03;;;2.84;83.21
51083;BME280;37131;42.694;23.350;2024-03-25T00:17:50;94220.34;;;2.79;82.63
51083;BME280;37131;42.694;23.350;2024-03-25T00:20:16;94203.41;;;2.88;83.15
51083;BME280;37131;42.694;23.350;2024-03-25T00:22:41;94209.44;;;2.87;83.21
51083;BME280;37131;42.694;23.350;2024-03-25T00:25:07;94211.28;;;2.94;83.71
51083;BME280;37131;42.694;23.350;2024-03-25T00:27:34;94211.19;;;2.86;83.60
51083;BME280;37131;42.694;23.350;2024-03-25T00:29:59;94200.22;;;2.76;83.57
51083;BME280;37131;42.694;23.350;2024-03-25T00:32:25;94200.38;;;2.75;83.82
51083;BME280;37131;42.694;23.350;2024-03-25T00:34:50;94194.84;;;2.79;83.98
51083;BME280;37131;42.694;23.350;2024-03-25T00:37:15;94189.63;;;2.81;85.11
51083;BME280;37131;42.694;23.350;2024-03-25T00:39:41;94182.53;;;2.75;84.59
51083;BME280;37131;42.694;23.350;2024-03-25T00:42:06;94183.72;;;2.80;86.39
51083;BME280;37131;42.694;23.350;2024-03-25T00:44:32;94185.03;;;2.84;86.18
51083;BME280;37131;42.694;23.350;2024-03-25T00:46:57;94178.94;;;2.95;85.16
51083;BME280;37131;42.694;23.350;2024-03-25T00:49:22;94189.53;;;3.00;84.33
51083;BME280;37131;42.694;23.350;2024-03-25T00:51:48;94189.03;;;3.14;83.66
51083;BME280;37131;42.694;23.350;2024-03-25T00:54:13;94186.78;;;3.11;83.26
51083;BME280;37131;42.694;23.350;2024-03-25T00:56:39;94186.63;;;3.13;83.49
51083;BME280;37131;42.694;23.350;2024-03-25T00:59:04;94181.19;;;3.25;84.28
51083;BME280;37131;42.694;23.350;2024-03-25T01:01:34;94178.63;;;3.25;83.01
51083;BME280;37131;42.694;23.350;2024-03-25T01:04:03;94180.66;;;3.22;83.49
51083;BME280;37131;42.694;23.350;2024-03-25T01:06:29;94171.06;;;3.33;83.03
51083;BME280;37131;42.694;23.350;2024-03-25T01:08:54;94167.19;;;3.29;83.00
51083;BME280;37131;42.694;23.350;2024-03-25T01:11:20;94166.81;;;3.24;83.94
51083;BME280;37131;42.694;23.350;2024-03-25T01:13:46;94154.75;;;3.44;84.31
51083;BME280;37131;42.694;23.350;2024-03-25T01:16:12;94147.75;;;3.46;83.55
51083;BME280;37131;42.694;23.350;2024-03-25T01:18:37;94140.25;;;3.62;83.42
51083;BME280;37131;42.694;23.350;2024-03-25T01:21:03;94144.69;;;3.60;82.85
51083;BME280;37131;42.694;23.350;2024-03-25T01:23:30;94140.13;;;3.72;83.56
51083;BME280;37131;42.694;23.350;2024-03-25T01:25:55;94136.06;;;3.79;82.71
51083;BME280;37131;42.694;23.350;2024-03-25T01:28:20;94145.41;;;3.71;82.91
51083;BME280;37131;42.694;23.350;2024-03-25T01:30:46;94149.03;;;3.68;82.25
51083;BME280;37131;42.694;23.350;2024-03-25T01:33:11;94156.13;;;3.74;82.79
51083;BME280;37131;42.694;23.350;2024-03-25T01:35:36;94153.97;;;3.61;83.76
51083;BME280;37131;42.694;23.350;2024-03-25T01:38:02;94160.41;;;3.74;83.65
51083;BME280;37131;42.694;23.350;2024-03-25T01:40:28;94168.66;;;3.85;83.02
51083;BME280;37131;42.694;23.350;2024-03-25T01:43:00;94173.47;;;3.88;83.36
51083;BME280;37131;42.694;23.350;2024-03-25T01:45:29;94175.38;;;3.86;83.63
51083;BME280;37131;42.694;23.350;2024-03-25T01:47:56;94161.94;;;3.84;81.80
51083;BME280;37131;42.694;23.350;2024-03-25T01:50:22;94165.38;;;3.93;82.41
51083;BME280;37131;42.694;23.350;2024-03-25T01:52:49;94170.84;;;3.80;83.60
51083;BME280;37131;42.694;23.350;2024-03-25T01:55:21;94167.94;;;3.75;83.44
51083;BME280;37131;42.694;23.350;2024-03-25T01:57:49;94169.97;;;3.72;84.54
51083;BME280;37131;42.694;23.350;2024-03-25T02:00:15;94178.00;;;3.77;83.09
51083;BME280;37131;42.694;23.350;2024-03-25T02:02:42;94187.69;;;3.73;84.34
51083;BME280;37131;42.694;23.350;2024-03-25T02:05:09;94188.78;;;3.71;82.38
51083;BME280;37131;42.694;23.350;2024-03-25T02:07:35;94197.50;;;3.60;83.01
51083;BME280;37131;42.694;23.350;2024-03-25T02:10:07;94192.88;;;3.46;83.29
51083;BME280;37131;42.694;23.350;2024-03-25T02:12:36;94194.16;;;3.59;82.46
51083;BME280;37131;42.694;23.350;2024-03-25T02:15:01;94192.97;;;3.54;83.45
51083;BME280;37131;42.694;23.350;2024-03-25T02:17:27;94193.03;;;3.44;82.97
51083;BME280;37131;42.694;23.350;2024-03-25T02:19:52;94184.50;;;3.36;82.99
51083;BME280;37131;42.694;23.350;2024-03-25T02:22:18;94175.66;;;3.30;82.93
51083;BME280;37131;42.694;23.350;2024-03-25T02:24:49;94176.16;;;3.33;83.73
51083;BME280;37131;42.694;23.350;2024-03-25T02:27:16;94175.38;;;3.33;82.94
51083;BME280;37131;42.694;23.350;2024-03-25T02:29:42;94165.53;;;3.38;82.42
51083;BME280;37131;42.694;23.350;2024-03-25T02:32:07;94183.09;;;3.41;81.68
51083;BME280;37131;42.694;23.350;2024-03-25T02:34:44;94185.66;;;3.41;82.30
51083;BME280;37131;42.694;23.350;2024-03-25T02:37:10;94182.44;;;3.39;82.40
51083;BME280;37131;42.694;23.350;2024-03-25T02:39:36;94178.22;;;3.30;82.66
51083;BME280;37131;42.694;23.350;2024-03-25T02:42:02;94185.78;;;3.22;84.84
51083;BME280;37131;42.694;23.350;2024-03-25T02:44:28;94181.09;;;3.17;82.49
51083;BME280;37131;42.694;23.350;2024-03-25T02:46:53;94180.56;;;3.14;83.13
51083;BME280;37131;42.694;23.350;2024-03-25T02:49:19;94176.47;;;3.30;82.66
51083;BME280;37131;42.694;23.350;2024-03-25T02:51:45;94188.78;;;3.35;82.63
51083;BME280;37131;42.694;23.350;2024-03-25T02:54:11;94190.75;;;3.41;81.98
51083;BME280;37131;42.694;23.350;2024-03-25T02:56:37;94196.66;;;3.42;81.99
51083;BME280;37131;42.694;23.350;2024-03-25T02:59:02;94201.34;;;3.46;82.33
51083;BME280;37131;42.694;23.350;2024-03-25T03:01:28;94189.97;;;3.41;81.73
51083;BME280;37131;42.694;23.350;2024-03-25T03:03:53;94195.16;;;3.49;80.49
51083;BME280;37131;42.694;23.350;2024-03-25T03:06:18;94202.44;;;3.44;80.95
51083;BME280;37131;42.694;23.350;2024-03-25T03:08:44;94201.56;;;3.53;79.91
51083;BME280;37131;42.694;23.350;2024-03-25T03:11:10;94197.75;;;3.39;80.14
51083;BME280;37131;42.694;23.350;2024-03-25T03:13:35;94209.19;;;3.35;80.15
51083;BME280;37131;42.694;23.350;2024-03-25T03:16:00;94198.25;;;3.25;79.94
51083;BME280;37131;42.694;23.350;2024-03-25T03:18:26;94203.28;;;3.35;80.33
51083;BME280;37131;42.694;23.350;2024-03-25T03:20:52;94208.25;;;3.36;80.60
51083;BME280;37131;42.694;23.350;2024-03-25T03:23:20;94201.88;;;3.50;81.02
51083;BME280;37131;42.694;23.350;2024-03-25T03:25:46;94202.66;;;3.50;79.69
51083;BME280;37131;42.694;23.350;2024-03-25T03:28:11;94207.47;;;3.53;81.40
51083;BME280;37131;42.694;23.350;2024-03-25T03:30:36;94230.69;;;3.60;79.33
51083;BME280;37131;42.694;23.350;2024-03-25T03:33:02;94238.06;;;3.63;79.02
51083;BME280;37131;42.694;23.350;2024-03-25T03:35:27;94233.00;;;3.71;78.95
51083;BME280;37131;42.694;23.350;2024-03-25T03:37:53;94240.16;;;3.67;79.42
51083;BME280;37131;42.694;23.350;2024-03-25T03:40:18;94239.44;;;3.75;78.76
51083;BME280;37131;42.694;23.350;2024-03-25T03:42:43;94245.19;;;3.77;78.59
51083;BME280;37131;42.694;23.350;2024-03-25T03:45:09;94237.63;;;3.85;77.56
51083;BME280;37131;42.694;23.350;2024-03-25T03:47:34;94242.44;;;3.88;77.08
51083;BME280;37131;42.694;23.350;2024-03-25T03:49:59;94236.50;;;3.70;77.76
51083;BME280;37131;42.694;23.350;2024-03-25T03:52:25;94242.78;;;3.76;77.23
51083;BME280;37131;42.694;23.350;2024-03-25T03:54:50;94250.81;;;3.63;76.78
51083;BME280;37131;42.694;23.350;2024-03-25T03:57:15;94241.97;;;3.57;77.06
51083;BME280;37131;42.694;23.350;2024-03-25T03:59:41;94238.69;;;3.65;78.30
51083;BME280;37131;42.694;23.350;2024-03-25T04:02:07;94240.44;;;3.64;76.47
51083;BME280;37131;42.694;23.350;2024-03-25T04:04:33;94253.00;;;3.76;77.41
51083;BME280;37131;42.694;23.350;2024-03-25T04:07:00;94265.53;;;3.69;76.79
51083;BME280;37131;42.694;23.350;2024-03-25T04:09:26;94266.56;;;3.58;76.54
51083;BME280;37131;42.694;23.350;2024-03-25T04:11:52;94276.63;;;3.60;75.92
51083;BME280;37131;42.694;23.350;2024-03-25T04:14:17;94269.41;;;3.55;76.35
51083;BME280;37131;42.694;23.350;2024-03-25T04:16:42;94271.16;;;3.55;77.33
51083;BME280;37131;42.694;23.350;2024-03-25T04:19:08;94272.34;;;3.60;75.63
51083;BME280;37131;42.694;23.350;2024-03-25T04:21:33;94264.44;;;3.54;76.80
51083;BME280;37131;42.694;23.350;2024-03-25T04:23:59;94276.63;;;3.60;76.12
51083;BME280;37131;42.694;23.350;2024-03-25T04:26:24;94284.16;;;3.61;77.25
51083;BME280;37131;42.694;23.350;2024-03-25T04:28:49;94284.56;;;3.57;77.16
51083;BME280;37131;42.694;23.350;2024-03-25T04:31:15;94291.16;;;3.59;76.31
51083;BME280;37131;42.694;23.350;2024-03-25T04:33:41;94296.16;;;3.69;77.95
51083;BME280;37131;42.694;23.350;2024-03-25T04:36:06;94285.28;;;3.67;76.20
51083;BME280;37131;42.694;23.350;2024-03-25T04:38:32;94297.22;;;3.76;76.68
51083;BME280;37131;42.694;23.350;2024-03-25T04:40:57;94319.75;;;3.81;77.89
51083;BME280;37131;42.694;23.350;2024-03-25T04:43:23;94330.09;;;3.61;77.50
51083;BME280;37131;42.694;23.350;2024-03-25T04:45:48;94336.31;;;3.49;77.03
51083;BME280;37131;42.694;23.350;2024-03-25T04:48:14;94333.47;;;3.62;76.51
51083;BME280;37131;42.694;23.350;2024-03-25T04:50:39;94339.94;;;3.74;76.61
51083;BME280;37131;42.694;23.350;2024-03-25T04:53:05;94338.19;;;3.75;76.89
51083;BME280;37131;42.694;23.350;2024-03-25T04:55:30;94332.38;;;3.82;76.49
51083;BME280;37131;42.694;23.350;2024-03-25T04:57:55;94341.13;;;3.80;77.87
51083;BME280;37131;42.694;23.350;2024-03-25T05:00:21;94349.22;;;3.75;76.36
51083;BME280;37131;42.694;23.350;2024-03-25T05:02:46;94340.34;;;3.79;77.91
51083;BME280;37131;42.694;23.350;2024-03-25T05:05:12;94341.38;;;3.86;75.68
51083;BME280;37131;42.694;23.350;2024-03-25T05:07:37;94347.72;;;3.82;75.91
51083;BME280;37131;42.694;23.350;2024-03-25T05:10:02;94338.38;;;3.91;76.61
51083;BME280;37131;42.694;23.350;2024-03-25T05:12:28;94346.28;;;3.97;76.33
51083;BME280;37131;42.694;23.350;2024-03-25T05:14:56;94339.63;;;3.87;74.43
51083;BME280;37131;42.694;23.350;2024-03-25T05:17:21;94336.50;;;3.93;75.63
51083;BME280;37131;42.694;23.350;2024-03-25T05:19:46;94342.03;;;3.88;73.38
51083;BME280;37131;42.694;23.350;2024-03-25T05:22:12;94345.72;;;4.04;74.76
51083;BME280;37131;42.694;23.350;2024-03-25T05:24:37;94352.09;;;3.90;73.35
51083;BME280;37131;42.694;23.350;2024-03-25T05:27:03;94347.09;;;3.98;73.80
51083;BME280;37131;42.694;23.350;2024-03-25T05:29:28;94357.16;;;3.99;73.54
51083;BME280;37131;42.694;23.350;2024-03-25T05:31:58;94356.59;;;4.06;74.46
51083;BME280;37131;42.694;23.350;2024-03-25T05:34:25;94348.22;;;4.13;72.62
51083;BME280;37131;42.694;23.350;2024-03-25T05:36:51;94362.22;;;3.82;73.29
51083;BME280;37131;42.694;23.350;2024-03-25T05:39:16;94354.22;;;3.94;73.56
51083;BME280;37131;42.694;23.350;2024-03-25T05:41:42;94361.03;;;4.04;72.70
51083;BME280;37131;42.694;23.350;2024-03-25T05:44:07;94360.03;;;4.14;73.20
51083;BME280;37131;42.694;23.350;2024-03-25T05:46:33;94368.78;;;4.12;72.21
51083;BME280;37131;42.694;23.350;2024-03-25T05:49:02;94370.41;;;4.13;72.04
51083;BME280;37131;42.694;23.350;2024-03-25T05:51:27;94374.25;;;4.17;73.06
51083;BME280;37131;42.694;23.350;2024-03-25T05:53:53;94379.81;;;4.12;72.23
51083;BME280;37131;42.694;23.350;2024-03-25T05:56:18;94385.94;;;4.19;72.95
51083;BME280;37131;42.694;23.350;2024-03-25T05:58:43;94380.63;;;4.30;72.00
51083;BME280;37131;42.694;23.350;2024-03-25T06:01:09;94380.81;;;4.19;72.38
51083;BME280;37131;42.694;23.350;2024-03-25T06:03:34;94387.41;;;4.22;71.67
51083;BME280;37131;42.694;23.350;2024-03-25T06:05:59;94386.53;;;4.13;73.16
51083;BME280;37131;42.694;23.350;2024-03-25T06:08:26;94400.59;;;4.17;71.81
51083;BME280;37131;42.694;23.350;2024-03-25T06:10:52;94397.84;;;4.28;72.75
51083;BME280;37131;42.694;23.350;2024-03-25T06:13:18;94405.69;;;4.45;72.98
51083;BME280;37131;42.694;23.350;2024-03-25T06:15:44;94409.09;;;4.36;72.47
51083;BME280;37131;42.694;23.350;2024-03-25T06:18:09;94421.91;;;4.53;71.21
51083;BME280;37131;42.694;23.350;2024-03-25T06:20:34;94416.56;;;4.47;71.24
51083;BME280;37131;42.694;23.350;2024-03-25T06:23:00;94422.94;;;4.60;71.12
51083;BME280;37131;42.694;23.350;2024-03-25T06:25:26;94416.38;;;4.58;70.30
51083;BME280;37131;42.694;23.350;2024-03-25T06:27:52;94423.56;;;4.80;72.08
51083;BME280;37131;42.694;23.350;2024-03-25T06:30:17;94424.69;;;4.78;70.68
51083;BME280;37131;42.694;23.350;2024-03-25T06:33:01;94443.16;;;4.89;68.93
51083;BME280;37131;42.694;23.350;2024-03-25T06:36:02;94434.25;;;4.93;67.70
51083;BME280;37131;42.694;23.350;2024-03-25T06:38:27;94448.56;;;5.04;69.89
51083;BME280;37131;42.694;23.350;2024-03-25T06:40:53;94449.88;;;4.90;68.70
51083;BME280;37131;42.694;23.350;2024-03-25T06:43:20;94453.75;;;4.94;67.85
51083;BME280;37131;42.694;23.350;2024-03-25T06:45:45;94442.34;;;4.89;68.62
51083;BME280;37131;42.694;23.350;2024-03-25T06:48:10;94442.72;;;4.94;69.65
51083;BME280;37131;42.694;23.350;2024-03-25T06:50:36;94447.03;;;4.93;67.31
51083;BME280;37131;42.694;23.350;2024-03-25T06:53:02;94463.94;;;5.04;68.87
51083;BME280;37131;42.694;23.350;2024-03-25T06:55:27;94462.84;;;5.07;68.30
51083;BME280;37131;42.694;23.350;2024-03-25T06:57:53;94468.19;;;5.21;67.59
51083;BME280;37131;42.694;23.350;2024-03-25T07:00:19;94474.50;;;5.27;68.11
51083;BME280;37131;42.694;23.350;2024-03-25T07:02:47;94477.13;;;5.35;67.23
51083;BME280;37131;42.694;23.350;2024-03-25T07:05:13;94466.66;;;5.28;67.87
51083;BME280;37131;42.694;23.350;2024-03-25T07:07:39;94462.41;;;5.37;67.51
51083;BME280;37131;42.694;23.350;2024-03-25T07:10:04;94466.53;;;5.56;66.49
51083;BME280;37131;42.694;23.350;2024-03-25T07:12:30;94470.97;;;5.72;65.51
51083;BME280;37131;42.694;23.350;2024-03-25T07:14:55;94474.31;;;5.72;66.74
51083;BME280;37131;42.694;23.350;2024-03-25T07:17:21;94470.50;;;5.76;65.49
51083;BME280;37131;42.694;23.350;2024-03-25T07:19:49;94475.53;;;5.86;64.68
51083;BME280;37131;42.694;23.350;2024-03-25T07:22:14;94483.28;;;5.94;63.72
51083;BME280;37131;42.694;23.350;2024-03-25T07:24:40;94487.47;;;5.77;64.13
51083;BME280;37131;42.694;23.350;2024-03-25T07:27:05;94493.88;;;5.99;63.77
51083;BME280;37131;42.694;23.350;2024-03-25T07:29:31;94488.97;;;6.06;64.45
51083;BME280;37131;42.694;23.350;2024-03-25T07:31:56;94489.66;;;6.16;63.32
51083;BME280;37131;42.694;23.350;2024-03-25T07:34:22;94491.69;;;5.86;62.53
51083;BME280;37131;42.694;23.350;2024-03-25T07:36:47;94493.59;;;5.84;63.22
51083;BME280;37131;42.694;23.350;2024-03-25T07:39:14;94490.38;;;6.00;63.40
51083;BME280;37131;42.694;23.350;2024-03-25T07:41:39;94492.66;;;6.11;63.55
51083;BME280;37131;42.694;23.350;2024-03-25T07:44:05;94480.81;;;6.10;62.60
51083;BME280;37131;42.694;23.350;2024-03-25T07:46:30;94490.75;;;6.13;62.35
51083;BME280;37131;42.694;23.350;2024-03-25T07:48:56;94497.66;;;6.13;61.68
51083;BME280;37131;42.694;23.350;2024-03-25T07:51:22;94500.25;;;6.29;60.02
51083;BME280;37131;42.694;23.350;2024-03-25T07:53:48;94493.38;;;6.29;62.41
51083;BME280;37131;42.694;23.350;2024-03-25T07:56:15;94501.56;;;6.33;60.17
51083;BME280;37131;42.694;23.350;2024-03-25T07:58:40;94493.16;;;6.57;63.00
51083;BME280;37131;42.694;23.350;2024-03-25T08:01:06;94504.88;;;6.59;60.32
51083;BME280;37131;42.694;23.350;2024-03-25T08:03:31;94496.75;;;6.72;58.89
51083;BME280;37131;42.694;23.350;2024-03-25T08:05:57;94497.53;;;6.73;60.86
51083;BME280;37131;42.694;23.350;2024-03-25T08:08:22;94499.34;;;6.96;60.04
51083;BME280;37131;42.694;23.350;2024-03-25T08:10:47;94500.78;;;6.99;59.44
51083;BME280;37131;42.694;23.350;2024-03-25T08:13:13;94513.28;;;6.86;59.07
51083;BME280;37131;42.694;23.350;2024-03-25T08:15:38;94495.63;;;6.91;58.76
51083;BME280;37131;42.694;23.350;2024-03-25T08:18:03;94508.63;;;6.89;59.22
51083;BME280;37131;42.694;23.350;2024-03-25T08:20:29;94500.78;;;6.91;58.95
51083;BME280;37131;42.694;23.350;2024-03-25T08:22:55;94508.19;;;7.02;58.49
51083;BME280;37131;42.694;23.350;2024-03-25T08:25:20;94510.25;;;6.98;57.76
51083;BME280;37131;42.694;23.350;2024-03-25T08:27:45;94510.13;;;7.16;59.89
51083;BME280;37131;42.694;23.350;2024-03-25T08:30:11;94518.31;;;7.12;57.14
51083;BME280;37131;42.694;23.350;2024-03-25T08:32:36;94522.81;;;7.26;56.39
51083;BME280;37131;42.694;23.350;2024-03-25T08:35:02;94521.22;;;7.17;58.38
51083;BME280;37131;42.694;23.350;2024-03-25T08:37:27;94533.09;;;7.18;58.45
51083;BME280;37131;42.694;23.350;2024-03-25T08:39:53;94535.97;;;7.31;57.54
51083;BME280;37131;42.694;23.350;2024-03-25T08:42:18;94526.81;;;7.37;55.27
51083;BME280;37131;42.694;23.350;2024-03-25T08:44:44;94538.25;;;7.58;54.97
51083;BME280;37131;42.694;23.350;2024-03-25T08:47:09;94526.19;;;7.59;54.05
51083;BME280;37131;42.694;23.350;2024-03-25T08:49:34;94519.41;;;7.82;55.51
51083;BME280;37131;42.694;23.350;2024-03-25T08:52:00;94529.19;;;8.11;54.55
51083;BME280;37131;42.694;23.350;2024-03-25T08:54:25;94529.09;;;7.72;53.88
51083;BME280;37131;42.694;23.350;2024-03-25T08:56:50;94550.69;;;8.35;53.42
51083;BME280;37131;42.694;23.350;2024-03-25T08:59:16;94545.03;;;8.47;51.66
51083;BME280;37131;42.694;23.350;2024-03-25T09:01:41;94548.97;;;8.66;51.09
51083;BME280;37131;42.694;23.350;2024-03-25T09:04:07;94548.34;;;8.64;52.99
51083;BME280;37131;42.694;23.350;2024-03-25T09:06:32;94538.69;;;8.97;51.86
51083;BME280;37131;42.694;23.350;2024-03-25T09:08:57;94540.94;;;9.00;50.39
51083;BME280;37131;42.694;23.350;2024-03-25T09:11:41;94540.47;;;8.66;51.45
51083;BME280;37131;42.694;23.350;2024-03-25T09:14:07;94547.88;;;8.60;51.37
51083;BME280;37131;42.694;23.350;2024-03-25T09:16:32;94547.13;;;8.36;53.35
51083;BME280;37131;42.694;23.350;2024-03-25T09:18:58;94552.66;;;8.08;54.71
51083;BME280;37131;42.694;23.350;2024-03-25T09:21:23;94576.91;;;8.14;53.30
51083;BME280;37131;42.694;23.350;2024-03-25T09:23:50;94571.16;;;7.71;53.25
51083;BME280;37131;42.694;23.350;2024-03-25T09:26:15;94567.81;;;7.79;53.16
51083;BME280;37131;42.694;23.350;2024-03-25T09:28:41;94564.72;;;8.00;53.93
51083;BME280;37131;42.694;23.350;2024-03-25T09:31:06;94568.41;;;8.13;53.42
51083;BME280;37131;42.694;23.350;2024-03-25T09:33:32;94574.94;;;8.40;52.22
51083;BME280;37131;42.694;23.350;2024-03-25T09:35:58;94568.25;;;7.90;53.33
51083;BME280;37131;42.694;23.350;2024-03-25T09:38:23;94568.66;;;8.43;53.05
51083;BME280;37131;42.694;23.350;2024-03-25T09:40:52;94571.38;;;8.57;55.39
51083;BME280;37131;42.694;23.350;2024-03-25T09:43:33;94568.56;;;8.83;52.42
51083;BME280;37131;42.694;23.350;2024-03-25T09:46:02;94565.75;;;8.93;51.43
51083;BME280;37131;42.694;23.350;2024-03-25T09:48:46;94566.03;;;8.98;51.39
51083;BME280;37131;42.694;23.350;2024-03-25T09:51:12;94562.34;;;8.61;49.98
51083;BME280;37131;42.694;23.350;2024-03-25T09:53:37;94572.41;;;8.16;52.69
51083;BME280;37131;42.694;23.350;2024-03-25T09:56:03;94570.19;;;7.64;53.28
51083;BME280;37131;42.694;23.350;2024-03-25T09:58:30;94571.13;;;8.12;52.53
51083;BME280;37131;42.694;23.350;2024-03-25T10:00:57;94568.19;;;8.47;50.49
51083;BME280;37131;42.694;23.350;2024-03-25T10:03:23;94568.00;;;8.49;51.69
51083;BME280;37131;42.694;23.350;2024-03-25T10:05:49;94572.34;;;8.32;50.69
51083;BME280;37131;42.694;23.350;2024-03-25T10:08:20;94570.91;;;8.54;51.03
51083;BME280;37131;42.694;23.350;2024-03-25T10:10:45;94572.81;;;8.52;50.46
51083;BME280;37131;42.694;23.350;2024-03-25T10:13:11;94571.56;;;8.48;50.76
51083;BME280;37131;42.694;23.350;2024-03-25T10:15:36;94566.72;;;8.53;50.88
51083;BME280;37131;42.694;23.350;2024-03-25T10:18:01;94577.75;;;8.78;50.74
51083;BME280;37131;42.694;23.350;2024-03-25T10:20:27;94588.03;;;8.78;49.64
51083;BME280;37131;42.694;23.350;2024-03-25T10:22:52;94573.06;;;8.81;50.81
51083;BME280;37131;42.694;23.350;2024-03-25T10:25:28;94567.97;;;8.65;52.15
51083;BME280;37131;42.694;23.350;2024-03-25T10:27:58;94562.47;;;9.07;49.96
51083;BME280;37131;42.694;23.350;2024-03-25T10:30:24;94560.03;;;9.37;48.11
51083;BME280;37131;42.694;23.350;2024-03-25T10:33:03;94563.66;;;9.73;47.17
51083;BME280;37131;42.694;23.350;2024-03-25T10:35:31;94568.88;;;10.03;50.33
51083;BME280;37131;42.694;23.350;2024-03-25T10:38:02;94561.81;;;9.82;47.36
51083;BME280;37131;42.694;23.350;2024-03-25T10:40:32;94564.00;;;9.70;46.82
51083;BME280;37131;42.694;23.350;2024-03-25T10:43:05;94559.41;;;9.57;46.17
51083;BME280;37131;42.694;23.350;2024-03-25T10:45:32;94568.56;;;9.60;44.88
51083;BME280;37131;42.694;23.350;2024-03-25T10:48:01;94560.44;;;9.48;45.39
51083;BME280;37131;42.694;23.350;2024-03-25T10:50:30;94554.66;;;9.69;44.96
51083;BME280;37131;42.694;23.350;2024-03-25T10:52:57;94560.31;;;9.87;44.09
51083;BME280;37131;42.694;23.350;2024-03-25T10:55:24;94551.72;;;9.26;45.80
51083;BME280;37131;42.694;23.350;2024-03-25T10:57:51;94554.59;;;9.32;46.06
51083;BME280;37131;42.694;23.350;2024-03-25T11:00:22;94548.47;;;9.55;46.28
51083;BME280;37131;42.694;23.350;2024-03-25T11:02:47;94560.00;;;9.14;45.03
51083;BME280;37131;42.694;23.350;2024-03-25T11:05:13;94561.88;;;8.97;47.10
51083;BME280;37131;42.694;23.350;2024-03-25T11:07:40;94556.84;;;9.04;45.76
51083;BME280;37131;42.694;23.350;2024-03-25T11:10:07;94553.28;;;8.82;47.97
51083;BME280;37131;42.694;23.350;2024-03-25T11:12:36;94540.81;;;8.54;46.84
51083;BME280;37131;42.694;23.350;2024-03-25T11:15:03;94555.94;;;8.88;47.04
51083;BME280;37131;42.694;23.350;2024-03-25T11:17:29;94544.22;;;8.86;45.99
51083;BME280;37131;42.694;23.350;2024-03-25T11:20:09;94548.66;;;9.00;46.37
51083;BME280;37131;42.694;23.350;2024-03-25T11:22:35;94546.16;;;9.38;46.88
51083;BME280;37131;42.694;23.350;2024-03-25T11:25:07;94553.72;;;9.39;45.93
51083;BME280;37131;42.694;23.350;2024-03-25T11:27:36;94566.69;;;9.31;46.34
51083;BME280;37131;42.694;23.350;2024-03-25T11:30:03;94569.31;;;9.46;47.22
51083;BME280;37131;42.694;23.350;2024-03-25T11:32:28;94572.00;;;9.75;49.47
51083;BME280;37131;42.694;23.350;2024-03-25T11:34:54;94585.97;;;9.58;48.11
51083;BME280;37131;42.694;23.350;2024-03-25T11:37:19;94578.25;;;9.81;46.28
51083;BME280;37131;42.694;23.350;2024-03-25T11:39:44;94576.19;;;9.76;46.96
51083;BME280;37131;42.694;23.350;2024-03-25T11:42:10;94582.97;;;9.92;48.92
51083;BME280;37131;42.694;23.350;2024-03-25T11:44:38;94581.50;;;9.52;46.74
51083;BME280;37131;42.694;23.350;2024-03-25T11:47:07;94569.53;;;9.36;49.00
51083;BME280;37131;42.694;23.350;2024-03-25T11:49:38;94563.34;;;9.68;48.63
51083;BME280;37131;42.694;23.350;2024-03-25T11:52:06;94588.38;;;9.37;49.35
51083;BME280;37131;42.694;23.350;2024-03-25T11:54:32;94576.75;;;9.63;49.01
51083;BME280;37131;42.694;23.350;2024-03-25T11:56:57;94565.28;;;9.89;51.38
51083;BME280;37131;42.694;23.350;2024-03-25T11:59:22;94584.75;;;9.91;47.42
51083;BME280;37131;42.694;23.350;2024-03-25T12:01:50;94578.56;;;10.01;48.41
51083;BME280;37131;42.694;23.350;2024-03-25T12:04:17;94586.59;;;10.73;45.99
51083;BME280;37131;42.694;23.350;2024-03-25T12:06:43;94596.91;;;10.73;44.47
51083;BME280;37131;42.694;23.350;2024-03-25T12:09:10;94590.16;;;10.72;45.07
51083;BME280;37131;42.694;23.350;2024-03-25T12:11:54;94572.25;;;10.55;44.81
51083;BME280;37131;42.694;23.350;2024-03-25T12:14:22;94586.16;;;10.40;44.88
51083;BME280;37131;42.694;23.350;2024-03-25T12:16:48;94576.69;;;10.61;46.37
51083;BME280;37131;42.694;23.350;2024-03-25T12:19:15;94568.25;;;10.82;44.36
51083;BME280;37131;42.694;23.350;2024-03-25T12:21:40;94571.06;;;11.02;43.31
51083;BME280;37131;42.694;23.350;2024-03-25T12:24:07;94576.56;;;11.14;43.50
51083;BME280;37131;42.694;23.350;2024-03-25T12:26:34;94578.03;;;10.87;42.65
51083;BME280;37131;42.694;23.350;2024-03-25T12:29:00;94574.53;;;10.94;42.94
51083;BME280;37131;42.694;23.350;2024-03-25T12:31:25;94581.16;;;10.82;44.76
51083;BME280;37131;42.694;23.350;2024-03-25T12:33:50;94573.59;;;10.81;44.48
51083;BME280;37131;42.694;23.350;2024-03-25T12:36:16;94575.63;;;11.57;43.76
51083;BME280;37131;42.694;23.350;2024-03-25T12:38:41;94567.03;;;12.21;39.89
51083;BME280;37131;42.694;23.350;2024-03-25T12:41:12;94580.16;;;11.91;40.68
51083;BME280;37131;42.694;23.350;2024-03-25T12:43:44;94583.41;;;12.90;37.66
51083;BME280;37131;42.694;23.350;2024-03-25T12:46:12;94584.94;;;14.00;36.78
51083;BME280;37131;42.694;23.350;2024-03-25T12:48:38;94582.34;;;12.16;39.73
51083;BME280;37131;42.694;23.350;2024-03-25T12:51:04;94584.88;;;13.67;36.29
51083;BME280;37131;42.694;23.350;2024-03-25T12:53:30;94581.53;;;14.13;35.81
51083;BME280;37131;42.694;23.350;2024-03-25T12:55:55;94579.88;;;12.64;35.14